createdAt,value
2023-01-18T00:01:55.802Z,97684.19
2023-01-18T00:04:44.506Z,97692.97
2023-01-18T00:07:33.103Z,97703.66
2023-01-18T00:10:22.436Z,97705.78
2023-01-18T00:13:11.279Z,97692.97
2023-01-18T00:16:04.193Z,97689.25
2023-01-18T00:18:55.664Z,97687.09
2023-01-18T00:21:44.626Z,97692.16
2023-01-18T00:24:33.146Z,97692.44
2023-01-18T00:27:21.723Z,97694.03
2023-01-18T00:30:12.082Z,97690.34
2023-01-18T00:33:01.230Z,97692.44
2023-01-18T00:35:58.118Z,97698.84
2023-01-18T00:38:51.654Z,97691.38
2023-01-18T00:42:00.266Z,97695.91
2023-01-18T00:44:47.897Z,97691.13
2023-01-18T00:47:36.490Z,97690.34
2023-01-18T00:50:25.034Z,97696.19
2023-01-18T00:53:15.009Z,97697.78
2023-01-18T00:56:03.570Z,97702.31
2023-01-18T00:58:52.278Z,97698.88
2023-01-18T01:01:41.026Z,97698.88
2023-01-18T01:04:47.244Z,97689.78
2023-01-18T01:07:35.869Z,97695.91
2023-01-18T01:10:25.893Z,97695.66
2023-01-18T01:13:32.369Z,97690.31
2023-01-18T01:16:38.832Z,97683.88
2023-01-18T01:19:45.271Z,97684.97
2023-01-18T01:22:51.616Z,97685.75
2023-01-18T01:25:59.557Z,97686.03
2023-01-18T01:28:52.777Z,97699.13
2023-01-18T01:31:44.227Z,97701.78
2023-01-18T01:34:33.027Z,97698.31
2023-01-18T01:37:21.626Z,97691.88
2023-01-18T01:40:11.717Z,97690.81
2023-01-18T01:43:01.730Z,97687.91
2023-01-18T01:45:50.551Z,97687.66
2023-01-18T01:48:39.315Z,97686.84
2023-01-18T01:51:28.415Z,97682.31
2023-01-18T01:54:18.743Z,97683.38
2023-01-18T01:57:11.104Z,97679.09
2023-01-18T02:00:03.310Z,97675.91
2023-01-18T02:02:55.803Z,97668.41
2023-01-18T02:05:46.258Z,97665.50
2023-01-18T02:08:34.885Z,97672.41
2023-01-18T02:11:23.863Z,97670.56
2023-01-18T02:14:15.729Z,97667.88
2023-01-18T02:17:23.454Z,97667.88
2023-01-18T02:20:56.541Z,97671.34
2023-01-18T02:24:10.531Z,97674.28
2023-01-18T02:27:02.131Z,97675.34
2023-01-18T02:30:10.291Z,97673.22
2023-01-18T02:33:05.310Z,97676.44
2023-01-18T02:35:57.034Z,97680.16
2023-01-18T02:38:47.269Z,97675.09
2023-01-18T02:41:59.749Z,97674.28
2023-01-18T02:45:06.435Z,97680.69
2023-01-18T02:47:57.184Z,97675.66
2023-01-18T02:50:45.838Z,97673.22
2023-01-18T02:53:38.061Z,97676.97
2023-01-18T02:56:30.300Z,97678.03
2023-01-18T02:59:22.758Z,97675.38
2023-01-18T03:02:13.829Z,97677.25
2023-01-18T03:05:04.297Z,97674.81
2023-01-18T03:07:56.673Z,97674.81
2023-01-18T03:10:51.637Z,97682.31
2023-01-18T03:13:58.826Z,97677.00
2023-01-18T03:17:00.423Z,97674.81
2023-01-18T03:20:06.362Z,97677.47
2023-01-18T03:23:21.386Z,97679.63
2023-01-18T03:26:11.981Z,97676.44
2023-01-18T03:29:20.359Z,97676.69
2023-01-18T03:32:30.139Z,97683.88
2023-01-18T03:35:20.098Z,97684.34
2023-01-18T03:38:10.568Z,97688.63
2023-01-18T03:41:00.689Z,97686.56
2023-01-18T03:43:50.486Z,97683.03
2023-01-18T03:46:40.035Z,97689.22
2023-01-18T03:49:28.773Z,97688.09
2023-01-18T03:52:19.450Z,97687.63
2023-01-18T03:55:13.354Z,97681.75
2023-01-18T03:58:04.256Z,97682.22
2023-01-18T04:00:54.080Z,97680.16
2023-01-18T04:03:42.708Z,97685.72
2023-01-18T04:06:33.312Z,97689.16
2023-01-18T04:09:22.083Z,97691.03
2023-01-18T04:12:12.089Z,97692.91
2023-01-18T04:15:00.773Z,97704.63
2023-01-18T04:17:53.039Z,97690.75
2023-01-18T04:20:41.880Z,97688.63
2023-01-18T04:23:30.492Z,97691.34
2023-01-18T04:26:19.318Z,97674.03
2023-01-18T04:29:09.667Z,97676.94
2023-01-18T04:31:58.338Z,97670.00
2023-01-18T04:34:46.975Z,97673.75
2023-01-18T04:37:38.233Z,97678.03
2023-01-18T04:40:27.006Z,97685.53
2023-01-18T04:43:15.681Z,97688.72
2023-01-18T04:46:05.956Z,97686.03
2023-01-18T04:48:54.648Z,97690.31
2023-01-18T04:51:44.144Z,97688.72
2023-01-18T04:54:32.885Z,97703.13
2023-01-18T04:57:21.524Z,97705.25
2023-01-18T05:00:11.428Z,97715.94
2023-01-18T05:03:01.599Z,97723.41
2023-01-18T05:05:50.360Z,97721.78
2023-01-18T05:08:40.907Z,97727.63
2023-01-18T05:11:29.649Z,97726.81
2023-01-18T05:14:18.226Z,97725.22
2023-01-18T05:17:07.365Z,97727.63
2023-01-18T05:19:57.339Z,97727.84
2023-01-18T05:22:46.139Z,97722.84
2023-01-18T05:25:37.020Z,97726.31
2023-01-18T05:28:29.721Z,97722.31
2023-01-18T05:31:21.158Z,97723.41
2023-01-18T05:34:09.929Z,97737.81
2023-01-18T05:36:59.941Z,97737.81
2023-01-18T05:39:48.564Z,97742.38
2023-01-18T05:42:37.292Z,97747.97
2023-01-18T05:45:25.927Z,97746.63
2023-01-18T05:48:16.396Z,97741.00
2023-01-18T05:51:09.692Z,97746.09
2023-01-18T05:53:59.717Z,97750.59
2023-01-18T05:56:48.524Z,97747.66
2023-01-18T05:59:37.136Z,97745.81
2023-01-18T06:02:26.148Z,97745.25
2023-01-18T06:05:15.717Z,97743.94
2023-01-18T06:08:04.363Z,97744.19
2023-01-18T06:10:58.439Z,97743.69
2023-01-18T06:13:47.039Z,97757.00
2023-01-18T06:16:35.858Z,97747.38
2023-01-18T06:19:24.589Z,97747.31
2023-01-18T06:22:13.271Z,97745.19
2023-01-18T06:25:02.135Z,97741.97
2023-01-18T06:27:52.441Z,97736.63
2023-01-18T06:30:42.805Z,97737.16
2023-01-18T06:33:31.671Z,97733.97
2023-01-18T06:36:20.487Z,97745.78
2023-01-18T06:39:09.378Z,97750.53
2023-01-18T06:41:58.351Z,97751.03
2023-01-18T06:44:48.504Z,97753.47
2023-01-18T06:47:37.266Z,97762.88
2023-01-18T06:50:26.077Z,97767.13
2023-01-18T06:53:14.778Z,97769.81
2023-01-18T06:56:03.554Z,97766.59
2023-01-18T06:58:52.321Z,97765.53
2023-01-18T07:01:42.615Z,97770.78
2023-01-18T07:04:44.241Z,97772.47
2023-01-18T07:07:33.595Z,97772.69
2023-01-18T07:10:22.239Z,97779.94
2023-01-18T07:13:10.852Z,97785.03
2023-01-18T07:16:02.090Z,97779.97
2023-01-18T07:18:52.072Z,97788.53
2023-01-18T07:21:43.144Z,97787.75
2023-01-18T07:24:32.464Z,97778.94
2023-01-18T07:27:21.056Z,97777.34
2023-01-18T07:30:12.402Z,97789.06
2023-01-18T07:33:01.394Z,97780.84
2023-01-18T07:35:53.426Z,97793.31
2023-01-18T07:38:42.600Z,97782.66
2023-01-18T07:41:31.438Z,97801.91
2023-01-18T07:44:20.072Z,97804.03
2023-01-18T07:47:08.986Z,97804.56
2023-01-18T07:49:57.520Z,97814.72
2023-01-18T07:52:47.618Z,97815.22
2023-01-18T07:55:38.857Z,97816.81
2023-01-18T07:58:27.561Z,97827.97
2023-01-18T08:01:19.922Z,97834.66
2023-01-18T08:04:09.666Z,97831.44
2023-01-18T08:06:59.220Z,97836.69
2023-01-18T08:09:49.395Z,97842.28
2023-01-18T08:12:38.097Z,97839.09
2023-01-18T08:15:26.777Z,97840.22
2023-01-18T08:18:15.557Z,97845.56
2023-01-18T08:21:04.277Z,97847.63
2023-01-18T08:23:55.089Z,97850.28
2023-01-18T08:26:45.190Z,97851.09
2023-01-18T08:29:33.809Z,97856.16
2023-01-18T08:32:22.648Z,97855.03
2023-01-18T08:35:11.386Z,97857.75
2023-01-18T08:38:00.939Z,97854.84
2023-01-18T08:40:49.568Z,97858.53
2023-01-18T08:43:39.585Z,97857.84
2023-01-18T08:46:28.348Z,97864.78
2023-01-18T08:49:17.069Z,97865.56
2023-01-18T08:52:06.808Z,97877.25
2023-01-18T08:54:55.463Z,97873.84
2023-01-18T08:57:44.061Z,97868.44
2023-01-18T09:00:34.413Z,97882.31
2023-01-18T09:03:23.662Z,97877.59
2023-01-18T09:06:13.164Z,97884.53
2023-01-18T09:09:02.157Z,97889.03
2023-01-18T09:11:52.480Z,97892.44
2023-01-18T09:14:41.180Z,97900.44
2023-01-18T09:17:31.210Z,97910.34
2023-01-18T09:20:19.927Z,97914.34
2023-01-18T09:23:09.404Z,97910.34
2023-01-18T09:26:05.424Z,97909.53
2023-01-18T09:28:54.534Z,97912.72
2023-01-18T09:31:43.272Z,97911.91
2023-01-18T09:34:33.846Z,97916.38
2023-01-18T09:37:22.630Z,97920.16
2023-01-18T09:40:16.910Z,97923.63
2023-01-18T09:43:05.769Z,97928.72
2023-01-18T09:45:55.571Z,97921.56
2023-01-18T09:48:45.371Z,97930.84
2023-01-18T09:51:41.030Z,97929.72
2023-01-18T09:54:40.039Z,97927.13
2023-01-18T09:57:38.946Z,97926.69
2023-01-18T10:00:29.377Z,97929.59
2023-01-18T10:03:21.606Z,97938.34
2023-01-18T10:06:15.536Z,97938.88
2023-01-18T10:09:07.415Z,97935.69
2023-01-18T10:12:00.163Z,97932.44
2023-01-18T10:14:51.094Z,97935.69
2023-01-18T10:17:42.225Z,97934.59
2023-01-18T10:20:37.990Z,97932.22
2023-01-18T10:23:32.074Z,97935.75
2023-01-18T10:26:28.925Z,97941.63
2023-01-18T10:29:22.235Z,97930.31
2023-01-18T10:32:12.868Z,97933.53
2023-01-18T10:35:03.315Z,97938.31
2023-01-18T10:37:52.666Z,97935.13
2023-01-18T10:40:41.722Z,97942.59
2023-01-18T10:43:33.070Z,97939.41
2023-01-18T10:46:21.716Z,97935.66
2023-01-18T10:49:38.990Z,97945.53
2023-01-18T10:52:29.285Z,97950.47
2023-01-18T10:55:19.472Z,97960.09
2023-01-18T10:58:14.085Z,97968.34
2023-01-18T11:01:04.511Z,97955.78
2023-01-18T11:03:55.522Z,97975.25
2023-01-18T11:06:50.428Z,97978.44
2023-01-18T11:09:42.870Z,97975.44
2023-01-18T11:12:38.198Z,97979.94
2023-01-18T11:15:31.077Z,97982.69
2023-01-18T11:18:19.768Z,97986.88
2023-01-18T11:21:12.265Z,97983.50
2023-01-18T11:24:07.687Z,97982.69
2023-01-18T11:27:00.184Z,97986.47
2023-01-18T11:29:48.810Z,97987.72
2023-01-18T11:32:38.623Z,97990.09
2023-01-18T11:35:30.928Z,97990.09
2023-01-18T11:38:20.713Z,97994.59
2023-01-18T11:41:17.187Z,97992.22
2023-01-18T11:44:13.243Z,98001.84
2023-01-18T11:47:03.988Z,98011.97
2023-01-18T11:49:58.890Z,98009.84
2023-01-18T11:52:52.391Z,98015.69
2023-01-18T11:55:47.592Z,98022.72
2023-01-18T11:58:38.127Z,98017.94
2023-01-18T12:01:43.512Z,98022.59
2023-01-18T12:04:41.524Z,98031.69
2023-01-18T12:07:41.078Z,98034.13
2023-01-18T12:10:35.619Z,98032.34
2023-01-18T12:13:39.657Z,98035.47
2023-01-18T12:16:40.895Z,98035.56
2023-01-18T12:19:53.501Z,98040.34
2023-01-18T12:23:08.600Z,98041.44
2023-01-18T12:26:12.616Z,98037.16
2023-01-18T12:29:16.558Z,98042.19
2023-01-18T12:32:13.138Z,98052.25
2023-01-18T12:35:23.333Z,98066.00
2023-01-18T12:38:18.806Z,98068.53
2023-01-18T12:41:24.621Z,98077.06
2023-01-18T12:44:25.721Z,98076.94
2023-01-18T12:47:33.195Z,98089.34
2023-01-18T12:50:25.482Z,98096.25
2023-01-18T12:53:17.161Z,98098.94
2023-01-18T12:56:11.925Z,98106.31
2023-01-18T12:59:04.545Z,98101.72
2023-01-18T13:01:56.105Z,98102.94
2023-01-18T13:04:48.723Z,98100.00
2023-01-18T13:07:41.350Z,98110.69
2023-01-18T13:10:30.652Z,98114.38
2023-01-18T13:13:21.808Z,98117.53
2023-01-18T13:16:39.481Z,98128.25
2023-01-18T13:19:34.880Z,98131.22
2023-01-18T13:22:28.629Z,98135.19
2023-01-18T13:25:39.432Z,98143.66
2023-01-18T13:28:28.648Z,98148.78
2023-01-18T13:31:17.234Z,98155.44
2023-01-18T13:34:07.995Z,98156.97
2023-01-18T13:37:13.357Z,98167.75
2023-01-18T13:40:02.756Z,98169.47
2023-01-18T13:42:51.420Z,98173.75
2023-01-18T13:46:05.768Z,98175.72
2023-01-18T13:48:56.397Z,98177.47
2023-01-18T13:51:54.662Z,98182.81
2023-01-18T13:55:26.033Z,98181.34
2023-01-18T13:58:20.124Z,98196.16
2023-01-18T14:01:09.683Z,98203.28
2023-01-18T14:03:58.711Z,98202.44
2023-01-18T14:06:48.254Z,98213.78
2023-01-18T14:09:40.123Z,98210.84
2023-01-18T14:12:51.558Z,98214.84
2023-01-18T14:15:51.234Z,98217.50
2023-01-18T14:18:42.190Z,98223.28
2023-01-18T14:21:40.734Z,98224.63
2023-01-18T14:24:47.360Z,98238.84
2023-01-18T14:27:38.880Z,98240.81
2023-01-18T14:30:30.888Z,98250.66
2023-01-18T14:33:23.305Z,98246.72
2023-01-18T14:36:21.410Z,98253.56
2023-01-18T14:39:13.253Z,98253.69
2023-01-18T14:42:03.951Z,98268.28
2023-01-18T14:44:58.147Z,98268.09
2023-01-18T14:47:49.653Z,98275.88
2023-01-18T14:50:41.385Z,98286.72
2023-01-18T14:53:31.799Z,98285.97
2023-01-18T14:56:22.858Z,98294.16
2023-01-18T14:59:20.605Z,98303.34
2023-01-18T15:02:22.499Z,98309.50
2023-01-18T15:05:13.313Z,98314.38
2023-01-18T15:08:03.364Z,98317.91
2023-01-18T15:10:52.216Z,98325.88
2023-01-18T15:13:49.078Z,98326.69
2023-01-18T15:16:37.969Z,98336.69
2023-01-18T15:19:30.514Z,98338.69
2023-01-18T15:22:22.608Z,98347.09
2023-01-18T15:25:22.953Z,98355.19
2023-01-18T15:28:23.292Z,98365.19
2023-01-18T15:31:15.256Z,98372.66
2023-01-18T15:34:04.120Z,98376.97
2023-01-18T15:36:52.989Z,98378.22
2023-01-18T15:39:51.517Z,98386.88
2023-01-18T15:42:43.983Z,98394.06
2023-01-18T15:45:34.426Z,98393.25
2023-01-18T15:48:23.941Z,98404.16
2023-01-18T15:51:12.705Z,98404.28
2023-01-18T15:54:01.395Z,98407.00
2023-01-18T15:56:51.725Z,98416.84
2023-01-18T15:59:42.820Z,98424.78
2023-01-18T16:02:31.942Z,98422.69
2023-01-18T16:05:25.477Z,98425.13
2023-01-18T16:08:20.188Z,98429.78
2023-01-18T16:11:28.824Z,98434.81
2023-01-18T16:14:25.216Z,98445.59
2023-01-18T16:17:16.363Z,98441.34
2023-01-18T16:20:16.379Z,98446.63
2023-01-18T16:23:09.092Z,98461.94
2023-01-18T16:26:02.004Z,98458.91
2023-01-18T16:28:52.423Z,98467.16
2023-01-18T16:31:44.309Z,98476.41
2023-01-18T16:34:32.986Z,98476.72
2023-01-18T16:37:22.256Z,98478.31
2023-01-18T16:40:14.285Z,98483.81
2023-01-18T16:43:04.936Z,98481.06
2023-01-18T16:45:54.471Z,98493.22
2023-01-18T16:48:44.542Z,98495.25
2023-01-18T16:51:33.222Z,98505.34
2023-01-18T16:54:22.094Z,98510.91
2023-01-18T16:57:23.662Z,98516.72
2023-01-18T17:00:19.115Z,98523.19
2023-01-18T17:03:07.856Z,98529.28
2023-01-18T17:05:58.050Z,98531.31
2023-01-18T17:08:46.949Z,98537.56
2023-01-18T17:11:35.605Z,98541.09
2023-01-18T17:14:24.702Z,98549.00
2023-01-18T17:17:13.415Z,98550.56
2023-01-18T17:20:02.128Z,98553.84
2023-01-18T17:22:52.638Z,98563.81
2023-01-18T17:25:41.651Z,98572.81
2023-01-18T17:28:30.438Z,98564.84
2023-01-18T17:31:19.067Z,98572.28
2023-01-18T17:34:08.957Z,98578.19
2023-01-18T17:36:58.640Z,98588.66
2023-01-18T17:40:02.388Z,98585.72
2023-01-18T17:42:57.936Z,98592.22
2023-01-18T17:45:59.646Z,98590.50
2023-01-18T17:48:49.258Z,98599.66
2023-01-18T17:51:38.520Z,98604.34
2023-01-18T17:54:28.492Z,98611.31
2023-01-18T17:57:18.587Z,98611.63
2023-01-18T18:00:09.169Z,98617.38
2023-01-18T18:02:59.860Z,98624.88
2023-01-18T18:05:50.583Z,98621.50
2023-01-18T18:08:39.363Z,98627.31
2023-01-18T18:11:28.019Z,98638.00
2023-01-18T18:14:18.043Z,98637.50
2023-01-18T18:17:07.738Z,98640.75
2023-01-18T18:19:56.504Z,98641.72
2023-01-18T18:22:45.152Z,98651.41
2023-01-18T18:25:34.909Z,98654.69
2023-01-18T18:28:24.451Z,98657.91
2023-01-18T18:31:16.404Z,98663.75
2023-01-18T18:34:05.071Z,98668.59
2023-01-18T18:36:53.699Z,98680.22
2023-01-18T18:39:42.692Z,98685.00
2023-01-18T18:42:31.342Z,98691.41
2023-01-18T18:45:20.171Z,98698.69
2023-01-18T18:48:10.906Z,98713.50
2023-01-18T18:50:59.487Z,98722.41
2023-01-18T18:53:48.186Z,98727.97
2023-01-18T18:56:36.940Z,98724.25
2023-01-18T18:59:25.563Z,98728.84
2023-01-18T19:02:16.343Z,98739.34
2023-01-18T19:05:07.490Z,98748.56
2023-01-18T19:07:56.194Z,98753.78
2023-01-18T19:10:44.802Z,98760.88
2023-01-18T19:13:33.439Z,98766.19
2023-01-18T19:16:22.001Z,98771.69
2023-01-18T19:19:12.401Z,98777.81
2023-01-18T19:22:02.718Z,98776.91
2023-01-18T19:24:51.420Z,98788.66
2023-01-18T19:27:40.035Z,98792.09
2023-01-18T19:30:30.323Z,98792.44
2023-01-18T19:33:19.475Z,98800.56
2023-01-18T19:36:10.032Z,98805.72
2023-01-18T19:39:02.277Z,98808.47
2023-01-18T19:41:51.210Z,98816.13
2023-01-18T19:44:39.764Z,98824.72
2023-01-18T19:47:28.458Z,98828.44
2023-01-18T19:50:17.759Z,98837.97
2023-01-18T19:53:06.645Z,98847.16
2023-01-18T19:56:06.892Z,98852.38
2023-01-18T19:58:56.240Z,98849.16
2023-01-18T20:01:45.308Z,98868.41
2023-01-18T20:04:34.298Z,98873.56
2023-01-18T20:07:22.929Z,98882.13
2023-01-18T20:10:12.830Z,98875.47
2023-01-18T20:13:03.161Z,98887.94
2023-01-18T20:15:54.665Z,98886.91
2023-01-18T20:18:43.513Z,98889.66
2023-01-18T20:21:32.173Z,98890.72
2023-01-18T20:24:21.010Z,98900.28
2023-01-18T20:27:16.420Z,98907.22
2023-01-18T20:30:08.193Z,98911.63
2023-01-18T20:32:56.805Z,98913.72
2023-01-18T20:35:46.444Z,98910.47
2023-01-18T20:38:35.762Z,98915.34
2023-01-18T20:41:24.497Z,98917.91
2023-01-18T20:44:13.315Z,98923.53
2023-01-18T20:47:03.592Z,98919.81
2023-01-18T20:49:52.288Z,98927.63
2023-01-18T20:52:40.933Z,98925.22
2023-01-18T20:55:29.590Z,98931.47
2023-01-18T20:58:18.262Z,98928.94
2023-01-18T21:01:07.484Z,98935.41
2023-01-18T21:03:57.564Z,98937.25
2023-01-18T21:06:46.618Z,98936.53
2023-01-18T21:09:35.285Z,98937.94
2023-01-18T21:12:23.891Z,98943.28
2023-01-18T21:15:13.375Z,98946.53
2023-01-18T21:18:04.110Z,98957.78
2023-01-18T21:20:54.872Z,98950.94
2023-01-18T21:23:43.473Z,98954.88
2023-01-18T21:26:32.165Z,98960.22
2023-01-18T21:29:20.958Z,98963.13
2023-01-18T21:32:09.797Z,98966.03
2023-01-18T21:34:58.349Z,98967.88
2023-01-18T21:37:48.360Z,98962.66
2023-01-18T21:40:36.984Z,98962.88
2023-01-18T21:43:43.443Z,98964.25
2023-01-18T21:46:32.075Z,98963.22
2023-01-18T21:49:57.621Z,98969.63
2023-01-18T21:53:06.362Z,98965.44
2023-01-18T21:55:54.941Z,98972.53
2023-01-18T21:58:57.857Z,98970.66
2023-01-18T22:01:47.916Z,98975.63
2023-01-18T22:04:54.202Z,98985.16
2023-01-18T22:07:43.519Z,98989.59
2023-01-18T22:10:33.451Z,98997.81
2023-01-18T22:13:22.077Z,98994.09
2023-01-18T22:16:10.706Z,98998.28
2023-01-18T22:18:59.854Z,99008.16
2023-01-18T22:21:49.202Z,99007.34
2023-01-18T22:24:37.758Z,99010.94
2023-01-18T22:27:27.839Z,99010.31
2023-01-18T22:30:16.885Z,99004.19
2023-01-18T22:33:05.611Z,99004.06
2023-01-18T22:35:59.131Z,99006.63
2023-01-18T22:38:47.771Z,99001.44
2023-01-18T22:41:36.372Z,99013.72
2023-01-18T22:44:26.427Z,99006.75
2023-01-18T22:47:14.939Z,99021.25
2023-01-18T22:50:03.572Z,99009.66
2023-01-18T22:52:52.167Z,99020.31
2023-01-18T22:55:43.712Z,99018.44
2023-01-18T22:58:32.410Z,99024.97
2023-01-18T23:01:24.939Z,99023.69
2023-01-18T23:04:13.549Z,99030.56
2023-01-18T23:07:02.168Z,99028.91
2023-01-18T23:09:51.454Z,99035.28
2023-01-18T23:12:40.083Z,99041.41
2023-01-18T23:15:46.469Z,99043.13
2023-01-18T23:18:36.471Z,99049.75
2023-01-18T23:21:25.101Z,99054.63
2023-01-18T23:24:13.900Z,99064.25
2023-01-18T23:27:02.684Z,99073.63
2023-01-18T23:29:58.602Z,99080.16
2023-01-18T23:32:47.343Z,99074.44
2023-01-18T23:35:37.387Z,99080.94
2023-01-18T23:38:26.000Z,99077.00
2023-01-18T23:41:32.532Z,99084.09
2023-01-18T23:44:38.756Z,99083.59
2023-01-18T23:47:44.800Z,99086.09
2023-01-18T23:50:51.060Z,99098.06
2023-01-18T23:53:58.603Z,99112.56
2023-01-18T23:56:48.500Z,99112.06
2023-01-18T23:59:37.827Z,99115.31
